createdAt,value
2023-09-04T00:00:25.696Z,102893.44
2023-09-04T00:02:53.597Z,102892.06
2023-09-04T00:05:20.014Z,102901.03
2023-09-04T00:07:46.616Z,102896.63
2023-09-04T00:10:13.816Z,102898.81
2023-09-04T00:12:44.061Z,102897.41
2023-09-04T00:15:10.653Z,102894.34
2023-09-04T00:17:37.125Z,102894.63
2023-09-04T00:20:13.987Z,102890.06
2023-09-04T00:22:40.481Z,102900.88
2023-09-04T00:25:10.555Z,102903.91
2023-09-04T00:27:37.010Z,102894.03
2023-09-04T00:30:03.806Z,102888.63
2023-09-04T00:32:39.706Z,102889.91
2023-09-04T00:35:07.337Z,102885.84
2023-09-04T00:37:45.529Z,102884.34
2023-09-04T00:40:16.814Z,102890.44
2023-09-04T00:42:46.077Z,102887.50
2023-09-04T00:45:18.034Z,102890.28
2023-09-04T00:47:49.058Z,102881.91
2023-09-04T00:53:23.384Z,102878.56
2023-09-04T00:55:51.859Z,102881.34
2023-09-04T00:58:18.521Z,102879.91
2023-09-04T01:00:45.616Z,102885.44
2023-09-04T01:03:15.892Z,102875.31
2023-09-04T01:05:42.469Z,102883.22
2023-09-04T01:08:22.992Z,102882.09
2023-09-04T01:11:28.703Z,102885.25
2023-09-04T01:13:59.761Z,102885.25
2023-09-04T01:16:27.072Z,102882.63
2023-09-04T01:19:05.167Z,102883.72
2023-09-04T01:21:39.043Z,102882.44
2023-09-04T01:24:10.034Z,102891.44
2023-09-04T01:27:02.271Z,102883.41
2023-09-04T01:29:55.646Z,102886.69
2023-09-04T01:32:52.677Z,102885.00
2023-09-04T01:35:25.934Z,102886.59
2023-09-04T01:37:53.792Z,102880.53
2023-09-04T01:40:20.405Z,102884.09
2023-09-04T01:42:52.038Z,102891.44
2023-09-04T01:45:18.768Z,102885.59
2023-09-04T01:47:47.536Z,102882.84
2023-09-04T01:50:14.657Z,102876.84
2023-09-04T01:52:44.161Z,102879.75
2023-09-04T01:55:16.385Z,102875.72
2023-09-04T01:57:45.787Z,102882.75
2023-09-04T02:00:20.959Z,102892.31
2023-09-04T02:02:47.460Z,102892.28
2023-09-04T02:05:14.063Z,102891.31
2023-09-04T02:10:30.463Z,102885.31
2023-09-04T02:12:57.268Z,102886.56
2023-09-04T02:15:27.936Z,102885.13
2023-09-04T02:17:57.445Z,102883.06
2023-09-04T02:20:28.342Z,102883.31
2023-09-04T02:22:57.219Z,102880.22
2023-09-04T02:25:25.348Z,102883.59
2023-09-04T02:27:55.744Z,102891.72
2023-09-04T02:30:22.292Z,102889.81
2023-09-04T02:32:48.914Z,102881.91
2023-09-04T02:35:16.498Z,102882.75
2023-09-04T02:37:47.487Z,102881.06
2023-09-04T02:40:14.025Z,102881.91
2023-09-04T02:42:52.434Z,102882.06
2023-09-04T02:45:28.764Z,102878.94
2023-09-04T02:47:55.662Z,102872.97
2023-09-04T02:50:24.847Z,102880.75
2023-09-04T02:52:53.737Z,102868.88
2023-09-04T02:55:20.276Z,102866.25
2023-09-04T02:57:46.732Z,102853.09
2023-09-04T03:00:19.142Z,102849.34
2023-09-04T03:02:45.690Z,102843.25
2023-09-04T03:05:13.741Z,102843.88
2023-09-04T03:07:43.165Z,102831.22
2023-09-04T03:10:09.888Z,102837.25
2023-09-04T03:12:39.476Z,102833.44
2023-09-04T03:15:09.295Z,102834.63
2023-09-04T03:17:48.233Z,102829.78
2023-09-04T03:20:23.118Z,102833.28
2023-09-04T03:22:53.517Z,102837.88
2023-09-04T03:25:27.588Z,102831.19
2023-09-04T03:27:53.991Z,102822.25
2023-09-04T03:30:20.406Z,102830.28
2023-09-04T03:32:50.084Z,102826.09
2023-09-04T03:35:19.923Z,102825.97
2023-09-04T03:37:46.489Z,102824.31
2023-09-04T03:40:23.835Z,102816.41
2023-09-04T03:42:53.115Z,102818.78
2023-09-04T03:45:22.689Z,102818.41
2023-09-04T03:47:50.157Z,102814.81
2023-09-04T03:50:17.825Z,102807.75
2023-09-04T03:52:47.730Z,102799.88
2023-09-04T03:55:14.208Z,102801.78
2023-09-04T03:57:50.022Z,102797.22
2023-09-04T04:00:20.254Z,102795.31
2023-09-04T04:02:51.747Z,102800.59
2023-09-04T04:05:19.150Z,102798.75
2023-09-04T04:07:50.517Z,102799.22
2023-09-04T04:10:17.501Z,102803.97
2023-09-04T04:12:44.136Z,102801.47
2023-09-04T04:15:13.652Z,102798.03
2023-09-04T04:17:41.574Z,102805.09
2023-09-04T04:20:17.245Z,102795.53
2023-09-04T04:22:43.747Z,102792.91
2023-09-04T04:25:14.506Z,102798.72
2023-09-04T04:27:46.616Z,102793.47
2023-09-04T04:30:16.682Z,102793.59
2023-09-04T04:32:50.885Z,102798.03
2023-09-04T04:35:22.213Z,102805.34
2023-09-04T04:37:51.719Z,102801.28
2023-09-04T04:40:27.154Z,102803.91
2023-09-04T04:42:58.047Z,102803.69
2023-09-04T04:45:30.912Z,102793.72
2023-09-04T04:48:15.811Z,102801.41
2023-09-04T04:50:42.302Z,102791.13
2023-09-04T04:55:49.463Z,102788.50
2023-09-04T04:58:21.480Z,102784.94
2023-09-04T05:00:48.392Z,102791.75
2023-09-04T05:03:17.865Z,102784.84
2023-09-04T05:05:47.892Z,102792.59
2023-09-04T05:08:14.924Z,102785.31
2023-09-04T05:10:45.027Z,102784.06
2023-09-04T05:13:11.797Z,102776.06
2023-09-04T05:15:38.556Z,102786.91
2023-09-04T05:18:09.001Z,102789.50
2023-09-04T05:20:37.856Z,102786.06
2023-09-04T05:23:06.760Z,102777.44
2023-09-04T05:25:33.484Z,102767.66
2023-09-04T05:28:04.031Z,102779.72
2023-09-04T05:30:34.758Z,102774.38
2023-09-04T05:33:01.185Z,102776.00
2023-09-04T05:35:27.649Z,102775.75
2023-09-04T05:37:56.472Z,102785.88
2023-09-04T05:40:26.252Z,102783.16
2023-09-04T05:42:55.514Z,102787.47
2023-09-04T05:45:28.783Z,102774.41
2023-09-04T05:47:55.271Z,102773.28
2023-09-04T05:50:29.961Z,102780.25
2023-09-04T05:52:56.347Z,102769.03
2023-09-04T05:55:28.666Z,102772.56
2023-09-04T05:57:55.126Z,102772.16
2023-09-04T06:00:22.762Z,102779.16
2023-09-04T06:02:58.254Z,102781.88
2023-09-04T06:05:27.824Z,102777.06
2023-09-04T06:08:01.114Z,102782.75
2023-09-04T06:10:27.647Z,102783.31
2023-09-04T06:12:58.270Z,102784.94
2023-09-04T06:15:24.615Z,102792.69
2023-09-04T06:17:51.050Z,102805.41
2023-09-04T06:20:21.572Z,102810.06
2023-09-04T06:22:50.968Z,102812.13
2023-09-04T06:25:24.587Z,102810.31
2023-09-04T06:27:51.778Z,102818.03
2023-09-04T06:30:18.308Z,102822.91
2023-09-04T06:32:48.274Z,102814.91
2023-09-04T06:35:17.785Z,102813.66
2023-09-04T06:37:47.832Z,102812.78
2023-09-04T06:40:18.345Z,102813.09
2023-09-04T06:42:44.819Z,102810.84
2023-09-04T06:45:14.781Z,102807.03
2023-09-04T06:47:44.120Z,102810.69
2023-09-04T06:52:52.502Z,102812.88
2023-09-04T06:55:21.919Z,102804.31
2023-09-04T06:57:52.110Z,102806.56
2023-09-04T07:00:23.158Z,102804.47
2023-09-04T07:02:52.809Z,102804.00
2023-09-04T07:05:26.992Z,102793.75
2023-09-04T07:07:53.577Z,102798.19
2023-09-04T07:10:20.207Z,102792.09
2023-09-04T07:12:50.916Z,102786.44
2023-09-04T07:15:21.045Z,102786.59
2023-09-04T07:18:02.265Z,102781.75
2023-09-04T07:20:34.940Z,102786.66
2023-09-04T07:23:14.849Z,102784.03
2023-09-04T07:25:46.937Z,102780.84
2023-09-04T07:28:16.348Z,102781.03
2023-09-04T07:30:45.881Z,102777.63
2023-09-04T07:33:12.383Z,102775.50
2023-09-04T07:35:54.980Z,102783.47
2023-09-04T07:38:24.382Z,102779.50
2023-09-04T07:41:03.081Z,102789.31
2023-09-04T07:43:33.028Z,102789.16
2023-09-04T07:46:00.378Z,102792.13
2023-09-04T07:48:29.917Z,102793.31
2023-09-04T07:50:58.185Z,102791.53
2023-09-04T07:53:25.658Z,102786.56
2023-09-04T07:55:55.160Z,102786.22
2023-09-04T07:58:23.808Z,102790.69
2023-09-04T08:00:56.653Z,102786.84
2023-09-04T08:03:23.684Z,102789.31
2023-09-04T08:05:50.782Z,102792.75
2023-09-04T08:08:20.450Z,102792.91
2023-09-04T08:10:50.734Z,102790.25
2023-09-04T08:13:22.464Z,102781.41
2023-09-04T08:15:52.293Z,102786.75
2023-09-04T08:18:20.085Z,102784.75
2023-09-04T08:20:53.050Z,102780.72
2023-09-04T08:23:19.460Z,102776.03
2023-09-04T08:25:54.942Z,102781.00
2023-09-04T08:28:21.415Z,102777.97
2023-09-04T08:31:01.275Z,102770.16
2023-09-04T08:33:33.083Z,102764.75
2023-09-04T08:36:03.288Z,102770.72
2023-09-04T08:38:33.272Z,102772.09
2023-09-04T08:41:08.956Z,102768.44
2023-09-04T08:43:45.187Z,102776.34
2023-09-04T08:46:12.014Z,102771.63
2023-09-04T08:48:40.982Z,102772.09
2023-09-04T08:51:11.014Z,102774.94
2023-09-04T08:53:41.740Z,102768.81
2023-09-04T08:56:12.143Z,102769.66
2023-09-04T08:58:41.281Z,102764.16
2023-09-04T09:01:09.049Z,102755.94
2023-09-04T09:03:36.461Z,102746.84
2023-09-04T09:06:03.382Z,102748.03
2023-09-04T09:08:31.953Z,102753.69
2023-09-04T09:11:02.428Z,102753.88
2023-09-04T09:13:29.285Z,102750.06
2023-09-04T09:16:00.965Z,102740.78
2023-09-04T09:18:44.212Z,102744.31
2023-09-04T09:21:28.488Z,102745.25
2023-09-04T09:24:06.881Z,102744.09
2023-09-04T09:26:33.563Z,102741.47
2023-09-04T09:29:04.050Z,102747.69
2023-09-04T09:31:31.177Z,102747.16
2023-09-04T09:33:58.242Z,102751.31
2023-09-04T09:36:31.542Z,102756.75
2023-09-04T09:38:58.123Z,102751.06
2023-09-04T09:44:11.504Z,102746.38
2023-09-04T09:46:43.001Z,102751.31
2023-09-04T09:49:12.683Z,102752.59
2023-09-04T09:51:41.891Z,102755.97
2023-09-04T09:54:17.254Z,102748.09
2023-09-04T09:56:44.058Z,102741.81
2023-09-04T09:59:13.445Z,102740.34
2023-09-04T10:01:41.211Z,102750.69
2023-09-04T10:04:08.249Z,102739.00
2023-09-04T10:06:39.560Z,102733.84
2023-09-04T10:09:13.442Z,102733.28
2023-09-04T10:11:45.762Z,102728.56
2023-09-04T10:14:28.908Z,102720.94
2023-09-04T10:17:09.891Z,102714.75
2023-09-04T10:19:41.135Z,102712.88
2023-09-04T10:22:21.502Z,102699.69
2023-09-04T10:25:24.377Z,102699.44
2023-09-04T10:28:43.324Z,102696.53
2023-09-04T10:31:15.615Z,102692.56
2023-09-04T10:33:45.279Z,102698.13
2023-09-04T10:38:56.910Z,102708.84
2023-09-04T10:41:31.126Z,102705.41
2023-09-04T10:44:04.708Z,102699.94
2023-09-04T10:46:31.509Z,102698.72
2023-09-04T10:48:58.101Z,102695.25
2023-09-04T10:51:38.175Z,102686.28
2023-09-04T10:54:28.615Z,102685.00
2023-09-04T10:57:00.291Z,102681.25
2023-09-04T10:59:36.246Z,102682.28
2023-09-04T11:02:33.357Z,102671.66
2023-09-04T11:05:02.001Z,102673.66
2023-09-04T11:07:55.185Z,102670.72
2023-09-04T11:10:44.481Z,102666.63
2023-09-04T11:13:11.188Z,102662.91
2023-09-04T11:15:40.817Z,102664.84
2023-09-04T11:18:16.708Z,102657.16
2023-09-04T11:20:54.747Z,102651.03
2023-09-04T11:23:36.160Z,102645.06
2023-09-04T11:26:07.126Z,102650.69
2023-09-04T11:28:33.656Z,102650.97
2023-09-04T11:31:00.509Z,102643.72
2023-09-04T11:33:37.234Z,102641.34
2023-09-04T11:39:08.231Z,102634.25
2023-09-04T11:41:40.735Z,102629.50
2023-09-04T11:44:08.123Z,102636.63
2023-09-04T11:46:44.394Z,102645.97
2023-09-04T11:49:11.033Z,102639.47
2023-09-04T11:51:38.603Z,102643.00
2023-09-04T11:54:08.190Z,102645.31
2023-09-04T11:56:35.503Z,102646.66
2023-09-04T11:59:06.868Z,102640.41
2023-09-04T12:01:37.047Z,102636.63
2023-09-04T12:04:07.533Z,102635.00
2023-09-04T12:06:37.086Z,102626.28
2023-09-04T12:09:09.543Z,102627.78
2023-09-04T12:11:38.948Z,102626.63
2023-09-04T12:14:16.861Z,102625.44
2023-09-04T12:16:45.322Z,102614.06
2023-09-04T12:19:21.421Z,102613.94
2023-09-04T12:21:47.923Z,102614.31
2023-09-04T12:24:24.021Z,102612.78
2023-09-04T12:26:56.721Z,102615.44
2023-09-04T12:29:25.869Z,102614.94
2023-09-04T12:31:52.544Z,102609.69
2023-09-04T12:34:29.581Z,102612.50
2023-09-04T12:36:56.767Z,102616.00
2023-09-04T12:39:32.456Z,102620.31
2023-09-04T12:42:06.709Z,102615.25
2023-09-04T12:44:36.324Z,102609.84
2023-09-04T12:47:05.198Z,102606.88
2023-09-04T12:49:37.587Z,102605.69
2023-09-04T12:52:04.430Z,102598.88
2023-09-04T12:54:35.937Z,102599.47
2023-09-04T12:57:05.451Z,102597.97
2023-09-04T12:59:38.261Z,102590.94
2023-09-04T13:02:05.416Z,102577.94
2023-09-04T13:04:31.909Z,102572.47
2023-09-04T13:07:07.379Z,102567.31
2023-09-04T13:09:33.829Z,102561.50
2023-09-04T13:12:09.410Z,102562.44
2023-09-04T13:14:37.631Z,102567.13
2023-09-04T13:17:07.107Z,102552.34
2023-09-04T13:19:34.073Z,102555.81
2023-09-04T13:22:08.381Z,102554.22
2023-09-04T13:24:37.733Z,102555.63
2023-09-04T13:27:05.661Z,102556.06
2023-09-04T13:29:33.493Z,102551.84
2023-09-04T13:31:59.878Z,102539.00
2023-09-04T13:34:26.365Z,102528.81
2023-09-04T13:36:56.752Z,102530.13
2023-09-04T13:39:26.381Z,102516.19
2023-09-04T13:41:54.503Z,102516.56
2023-09-04T13:44:27.446Z,102504.72
2023-09-04T13:46:53.938Z,102511.78
2023-09-04T13:49:20.503Z,102510.72
2023-09-04T13:51:49.243Z,102500.16
2023-09-04T13:54:15.681Z,102500.84
2023-09-04T13:56:45.063Z,102506.47
2023-09-04T13:59:14.403Z,102491.97
2023-09-04T14:01:41.001Z,102483.66
2023-09-04T14:04:10.705Z,102484.25
2023-09-04T14:06:39.929Z,102490.47
2023-09-04T14:09:14.159Z,102481.31
2023-09-04T14:11:43.870Z,102475.91
2023-09-04T14:14:10.398Z,102481.75
2023-09-04T14:16:40.027Z,102474.06
2023-09-04T14:19:11.391Z,102473.34
2023-09-04T14:21:47.708Z,102475.31
2023-09-04T14:24:26.977Z,102473.44
2023-09-04T14:26:53.762Z,102480.00
2023-09-04T14:29:34.439Z,102474.25
2023-09-04T14:34:53.167Z,102466.41
2023-09-04T14:37:20.349Z,102470.47
2023-09-04T14:39:49.192Z,102467.06
2023-09-04T14:42:18.828Z,102465.22
2023-09-04T14:44:45.857Z,102476.34
2023-09-04T14:47:15.637Z,102467.81
2023-09-04T14:49:42.074Z,102456.13
2023-09-04T14:52:12.223Z,102450.75
2023-09-04T14:54:39.743Z,102459.75
2023-09-04T14:57:06.249Z,102465.72
2023-09-04T14:59:32.873Z,102463.69
2023-09-04T15:02:01.916Z,102461.22
2023-09-04T15:04:31.757Z,102461.75
2023-09-04T15:06:58.490Z,102460.25
2023-09-04T15:09:24.921Z,102449.16
2023-09-04T15:11:54.770Z,102447.44
2023-09-04T15:14:21.247Z,102444.38
2023-09-04T15:16:51.870Z,102440.53
2023-09-04T15:19:18.326Z,102439.47
2023-09-04T15:21:44.756Z,102430.69
2023-09-04T15:24:20.258Z,102424.41
2023-09-04T15:26:46.728Z,102419.69
2023-09-04T15:29:17.772Z,102408.88
2023-09-04T15:31:46.959Z,102416.44
2023-09-04T15:34:21.153Z,102416.91
2023-09-04T15:36:47.641Z,102416.69
2023-09-04T15:39:14.191Z,102417.13
2023-09-04T15:41:48.955Z,102419.34
2023-09-04T15:44:15.493Z,102420.28
2023-09-04T15:46:48.548Z,102412.22
2023-09-04T15:49:19.154Z,102410.31
2023-09-04T15:51:50.857Z,102408.09
2023-09-04T15:54:17.444Z,102411.47
2023-09-04T15:56:43.911Z,102405.50
2023-09-04T15:59:12.952Z,102405.84
2023-09-04T16:01:42.279Z,102404.78
2023-09-04T16:04:09.080Z,102397.16
2023-09-04T16:06:47.446Z,102400.78
2023-09-04T16:09:14.218Z,102391.88
2023-09-04T16:11:47.403Z,102401.50
2023-09-04T16:14:14.424Z,102393.28
2023-09-04T16:16:43.746Z,102392.63
2023-09-04T16:19:10.247Z,102399.94
2023-09-04T16:21:37.368Z,102390.13
2023-09-04T16:24:15.950Z,102397.19
2023-09-04T16:32:09.758Z,102392.06
2023-09-04T16:34:39.457Z,102378.88
2023-09-04T16:37:06.035Z,102386.69
2023-09-04T16:39:35.775Z,102387.72
2023-09-04T16:42:02.199Z,102379.50
2023-09-04T16:44:28.650Z,102392.34
2023-09-04T16:49:41.427Z,102393.47
2023-09-04T16:52:07.933Z,102391.66
2023-09-04T16:54:34.469Z,102387.66
2023-09-04T16:57:05.595Z,102388.31
2023-09-04T16:59:32.101Z,102384.88
2023-09-04T17:01:58.586Z,102389.25
2023-09-04T17:07:15.979Z,102395.53
2023-09-04T17:09:42.421Z,102393.75
2023-09-04T17:12:22.412Z,102390.53
2023-09-04T17:14:54.974Z,102392.84
2023-09-04T17:17:21.510Z,102378.88
2023-09-04T17:19:47.999Z,102377.03
2023-09-04T17:22:18.802Z,102377.50
2023-09-04T17:24:45.309Z,102367.28
2023-09-04T17:27:11.742Z,102376.00
2023-09-04T17:29:41.248Z,102376.25
2023-09-04T17:32:10.828Z,102370.91
2023-09-04T17:34:43.084Z,102373.81
2023-09-04T17:37:12.508Z,102378.81
2023-09-04T17:39:38.918Z,102373.47
2023-09-04T17:42:13.821Z,102378.22
2023-09-04T17:44:40.279Z,102369.59
2023-09-04T17:47:11.770Z,102368.16
2023-09-04T17:49:41.158Z,102366.53
2023-09-04T17:52:08.012Z,102362.44
2023-09-04T17:54:37.737Z,102355.25
2023-09-04T17:57:08.035Z,102357.53
2023-09-04T17:59:35.443Z,102349.91
2023-09-04T18:02:04.307Z,102348.25
2023-09-04T18:04:30.773Z,102329.94
2023-09-04T18:06:59.918Z,102333.06
2023-09-04T18:09:30.031Z,102330.59
2023-09-04T18:11:56.699Z,102332.81
2023-09-04T18:14:26.656Z,102333.84
2023-09-04T18:16:55.885Z,102321.50
2023-09-04T18:19:28.849Z,102315.50
2023-09-04T18:21:58.564Z,102306.22
2023-09-04T18:24:38.322Z,102301.28
2023-09-04T18:27:05.260Z,102293.63
2023-09-04T18:29:41.738Z,102300.81
2023-09-04T18:32:08.491Z,102296.28
2023-09-04T18:34:57.078Z,102293.38
2023-09-04T18:37:26.667Z,102293.16
2023-09-04T18:39:53.892Z,102294.59
2023-09-04T18:42:21.696Z,102290.84
2023-09-04T18:44:51.341Z,102281.81
2023-09-04T18:47:29.662Z,102290.41
2023-09-04T18:49:56.165Z,102285.66
2023-09-04T18:52:27.011Z,102290.56
2023-09-04T18:54:54.669Z,102293.84
2023-09-04T18:57:21.415Z,102287.41
2023-09-04T18:59:52.065Z,102284.69
2023-09-04T19:02:19.447Z,102283.44
2023-09-04T19:04:46.029Z,102290.38
2023-09-04T19:07:15.082Z,102289.97
2023-09-04T19:09:44.614Z,102289.72
2023-09-04T19:12:15.329Z,102290.50
2023-09-04T19:14:44.668Z,102287.59
2023-09-04T19:17:11.136Z,102281.16
2023-09-04T19:19:38.623Z,102274.97
2023-09-04T19:22:07.588Z,102277.41
2023-09-04T19:24:34.168Z,102278.16
2023-09-04T19:27:01.022Z,102280.59
2023-09-04T19:29:27.413Z,102278.69
2023-09-04T19:31:54.326Z,102280.72
2023-09-04T19:34:20.821Z,102288.28
2023-09-04T19:36:51.776Z,102287.66
2023-09-04T19:39:18.218Z,102284.34
2023-09-04T19:41:44.665Z,102285.91
2023-09-04T19:44:15.738Z,102293.06
2023-09-04T19:46:42.229Z,102293.44
2023-09-04T19:49:08.742Z,102285.00
2023-09-04T19:51:40.125Z,102280.25
2023-09-04T19:54:06.757Z,102276.25
2023-09-04T19:56:33.205Z,102282.34
2023-09-04T19:59:03.814Z,102284.38
2023-09-04T20:01:30.432Z,102271.44
2023-09-04T20:03:56.953Z,102274.47
2023-09-04T20:06:27.545Z,102275.84
2023-09-04T20:08:55.366Z,102278.09
2023-09-04T20:11:21.835Z,102261.47
2023-09-04T20:13:51.350Z,102263.03
2023-09-04T20:16:20.899Z,102265.25
2023-09-04T20:18:50.121Z,102263.34
2023-09-04T20:21:16.602Z,102253.88
2023-09-04T20:23:43.678Z,102255.75
2023-09-04T20:26:12.216Z,102253.63
2023-09-04T20:28:44.486Z,102252.34
2023-09-04T20:31:11.246Z,102252.09
2023-09-04T20:33:48.293Z,102247.31
2023-09-04T20:36:14.716Z,102257.50
2023-09-04T20:38:49.984Z,102250.88
2023-09-04T20:41:26.410Z,102242.44
2023-09-04T20:43:52.852Z,102256.47
2023-09-04T20:46:19.841Z,102246.22
2023-09-04T20:48:49.416Z,102246.59
2023-09-04T20:51:19.120Z,102243.19
2023-09-04T20:53:53.258Z,102239.44
2023-09-04T20:56:19.750Z,102236.13
2023-09-04T20:58:46.327Z,102240.78
2023-09-04T21:03:59.920Z,102233.75
2023-09-04T21:06:30.224Z,102222.81
2023-09-04T21:09:02.452Z,102220.00
2023-09-04T21:11:28.982Z,102216.06
2023-09-04T21:14:14.138Z,102218.91
2023-09-04T21:26:05.487Z,102214.91
2023-09-04T21:28:52.613Z,102226.06
2023-09-04T21:31:39.451Z,102222.09
2023-09-04T21:34:24.897Z,102220.97
2023-09-04T21:37:09.688Z,102225.19
2023-09-04T21:40:04.276Z,102221.94
2023-09-04T21:42:49.540Z,102209.56
2023-09-04T21:45:37.155Z,102215.03
2023-09-04T21:48:22.552Z,102219.25
2023-09-04T21:51:10.387Z,102227.72
2023-09-04T21:53:55.306Z,102225.59
2023-09-04T21:56:44.301Z,102227.78
2023-09-04T21:59:29.545Z,102231.13
2023-09-04T22:02:17.596Z,102219.56
2023-09-04T22:05:03.229Z,102230.72
2023-09-04T22:07:48.438Z,102223.63
2023-09-04T22:10:33.682Z,102214.16
2023-09-04T22:13:21.849Z,102222.78
2023-09-04T22:16:09.016Z,102220.78
2023-09-04T22:19:08.410Z,102214.84
2023-09-04T22:21:53.262Z,102213.66
2023-09-04T22:24:42.700Z,102217.97
2023-09-04T22:27:32.112Z,102215.66
2023-09-04T22:30:23.394Z,102213.69
2023-09-04T22:33:14.906Z,102217.38
2023-09-04T22:35:59.758Z,102211.59
2023-09-04T22:38:47.480Z,102208.47
2023-09-04T22:41:32.614Z,102213.97
2023-09-04T22:44:18.473Z,102207.81
2023-09-04T22:47:03.461Z,102207.00
2023-09-04T22:49:48.263Z,102206.19
2023-09-04T22:52:37.142Z,102207.81
2023-09-04T22:55:25.038Z,102203.69
2023-09-04T22:58:10.009Z,102214.63
2023-09-04T23:01:00.822Z,102211.47
2023-09-04T23:03:49.389Z,102217.75
2023-09-04T23:06:34.489Z,102217.94
2023-09-04T23:09:24.792Z,102215.63
2023-09-04T23:12:14.423Z,102212.88
2023-09-04T23:14:59.356Z,102212.38
2023-09-04T23:17:46.525Z,102215.81
2023-09-04T23:20:33.514Z,102213.19
2023-09-04T23:22:59.932Z,102215.81
2023-09-04T23:25:35.261Z,102211.38
2023-09-04T23:28:06.565Z,102211.53
2023-09-04T23:30:44.117Z,102215.38
2023-09-04T23:33:13.339Z,102205.91
2023-09-04T23:36:02.377Z,102202.63
2023-09-04T23:38:44.149Z,102196.16
2023-09-04T23:41:30.404Z,102188.56
2023-09-04T23:44:15.400Z,102189.75
2023-09-04T23:46:41.829Z,102193.38
2023-09-04T23:49:14.898Z,102202.31
2023-09-04T23:51:41.365Z,102193.53
2023-09-04T23:54:11.048Z,102189.44
2023-09-04T23:56:40.501Z,102185.44
2023-09-04T23:59:14.686Z,102190.09
